Time,TemperatureF,DewpointF,PressureIn,WindDirection,WindDirectionDegrees,WindSpeedMPH,WindSpeedGustMPH,Humidity,HourlyPrecipIn,Conditions,Clouds,dailyrainin,SoftwareType,DateUTC
2013-03-03 00:13:00,28.1,19.0,29.76,North,351,4.0,14.0,69,0.00,,,0.00,weatherlink.com 1.10,2013-03-03 05:13:00,
2013-03-03 00:28:00,28.0,19.0,29.76,NNE,27,10.0,11.0,69,0.00,,,0.00,weatherlink.com 1.10,2013-03-03 05:28:00,
2013-03-03 00:43:00,27.9,19.0,29.76,NNW,336,3.0,10.0,69,0.00,,,0.00,weatherlink.com 1.10,2013-03-03 05:43:00,
2013-03-03 00:58:00,27.8,19.0,29.76,West,274,1.0,7.0,70,0.00,,,0.00,weatherlink.com 1.10,2013-03-03 05:58:00,
2013-03-03 01:13:00,27.8,19.0,29.76,WSW,248,2.0,10.0,69,0.00,,,0.00,weatherlink.com 1.10,2013-03-03 06:13:00,
2013-03-03 01:28:00,27.8,19.0,29.76,WNW,303,6.0,11.0,69,0.00,,,0.00,weatherlink.com 1.10,2013-03-03 06:28:00,
2013-03-03 01:43:00,27.8,19.0,29.76,NNW,346,1.0,6.0,70,0.00,,,0.00,weatherlink.com 1.10,2013-03-03 06:43:00,
2013-03-03 01:58:00,27.7,19.0,29.76,NW,317,3.0,8.0,71,0.00,,,0.00,weatherlink.com 1.10,2013-03-03 06:58:00,
2013-03-03 02:13:00,27.6,19.0,29.75,West,270,4.0,8.0,70,0.00,,,0.00,weatherlink.com 1.10,2013-03-03 07:13:00,
2013-03-03 02:28:00,27.4,18.0,29.75,West,263,2.0,14.0,69,0.00,,,0.00,weatherlink.com 1.10,2013-03-03 07:28:00,
2013-03-03 02:43:00,27.2,18.0,29.75,WSW,255,3.0,10.0,69,0.00,,,0.00,weatherlink.com 1.10,2013-03-03 07:43:00,
2013-03-03 02:58:00,27.1,18.0,29.74,West,259,3.0,11.0,68,0.00,,,0.00,weatherlink.com 1.10,2013-03-03 07:58:00,
2013-03-03 03:13:00,27.0,18.0,29.75,West,274,5.0,13.0,68,0.00,,,0.00,weatherlink.com 1.10,2013-03-03 08:13:00,
2013-03-03 03:28:00,26.9,18.0,29.74,WNW,295,5.0,12.0,68,0.00,,,0.00,weatherlink.com 1.10,2013-03-03 08:28:00,
2013-03-03 03:43:00,26.8,18.0,29.74,NNW,332,3.0,11.0,68,0.00,,,0.00,weatherlink.com 1.10,2013-03-03 08:43:00,
2013-03-03 03:58:00,26.7,17.0,29.74,West,272,5.0,11.0,67,0.00,,,0.00,weatherlink.com 1.10,2013-03-03 08:58:00,
2013-03-03 04:13:00,26.5,17.0,29.75,WNW,285,4.0,11.0,68,0.00,,,0.00,weatherlink.com 1.10,2013-03-03 09:13:00,
2013-03-03 04:28:00,26.3,17.0,29.75,North,355,5.0,13.0,68,0.00,,,0.00,weatherlink.com 1.10,2013-03-03 09:28:00,
2013-03-03 04:43:00,26.2,17.0,29.75,NNE,18,3.0,10.0,69,0.00,,,0.00,weatherlink.com 1.10,2013-03-03 09:43:00,
2013-03-03 04:58:00,26.1,17.0,29.75,WNW,296,4.0,8.0,69,0.00,,,0.00,weatherlink.com 1.10,2013-03-03 09:58:00,
2013-03-03 05:13:00,26.1,18.0,29.75,NNW,340,6.0,8.0,70,0.00,,,0.00,weatherlink.com 1.10,2013-03-03 10:13:00,
2013-03-03 05:28:00,26.0,17.0,29.75,NW,309,5.0,9.0,70,0.00,,,0.00,weatherlink.com 1.10,2013-03-03 10:28:00,
2013-03-03 05:43:00,26.1,18.0,29.75,WNW,294,0.0,6.0,71,0.00,,,0.00,weatherlink.com 1.10,2013-03-03 10:43:00,
2013-03-03 05:58:00,26.1,18.0,29.76,WNW,292,4.0,6.0,71,0.00,,,0.00,weatherlink.com 1.10,2013-03-03 10:58:00,
2013-03-03 06:13:00,26.2,18.0,29.75,WNW,288,1.0,12.0,70,0.00,,,0.00,weatherlink.com 1.10,2013-03-03 11:13:00,
2013-03-03 06:28:00,26.2,18.0,29.75,West,275,5.0,8.0,70,0.00,,,0.00,weatherlink.com 1.10,2013-03-03 11:28:00,
2013-03-03 06:43:00,26.3,18.0,29.75,West,276,3.0,10.0,70,0.00,,,0.00,weatherlink.com 1.10,2013-03-03 11:43:00,
2013-03-03 06:58:00,26.5,18.0,29.75,NW,318,3.0,7.0,70,0.00,,,0.00,weatherlink.com 1.10,2013-03-03 11:58:00,
2013-03-03 07:13:00,26.7,18.0,29.75,North,349,4.0,10.0,70,0.00,,,0.00,weatherlink.com 1.10,2013-03-03 12:13:00,
2013-03-03 07:28:00,26.9,18.0,29.76,NW,309,5.0,10.0,70,0.00,,,0.00,weatherlink.com 1.10,2013-03-03 12:28:00,
2013-03-03 07:43:00,27.0,18.0,29.76,NNW,334,6.0,12.0,70,0.00,,,0.00,weatherlink.com 1.10,2013-03-03 12:43:00,
2013-03-03 07:58:00,27.1,19.0,29.76,ENE,63,2.0,7.0,71,0.00,,,0.00,weatherlink.com 1.10,2013-03-03 12:58:00,
2013-03-03 08:13:00,27.2,19.0,29.76,NW,311,1.0,9.0,72,0.00,,,0.00,weatherlink.com 1.10,2013-03-03 13:13:00,
2013-03-03 08:28:00,27.3,19.0,29.75,North,360,4.0,8.0,71,0.00,,,0.00,weatherlink.com 1.10,2013-03-03 13:28:00,
2013-03-03 08:43:00,27.8,18.0,29.75,NNW,341,18.0,18.0,68,0.00,,,0.00,weatherlink.com 1.10,2013-03-03 13:43:00,
2013-03-03 08:59:00,28.5,18.0,29.75,NW,317,6.0,11.0,66,0.00,,,0.00,weatherlink.com 1.10,2013-03-03 13:59:00,
2013-03-03 09:14:00,28.7,17.0,29.75,WNW,290,3.0,15.0,63,0.00,,,0.00,weatherlink.com 1.10,2013-03-03 14:14:00,
2013-03-03 09:29:00,29.0,17.0,29.75,North,355,2.0,15.0,60,0.00,,,0.00,weatherlink.com 1.10,2013-03-03 14:29:00,
2013-03-03 09:44:00,29.7,17.0,29.75,NNW,338,2.0,18.0,60,0.00,,,0.00,weatherlink.com 1.10,2013-03-03 14:44:00,
2013-03-03 09:59:00,29.9,17.0,29.75,North,355,8.0,13.0,59,0.00,,,0.00,weatherlink.com 1.10,2013-03-03 14:59:00,
2013-03-03 10:14:00,29.9,17.0,29.75,North,350,2.0,11.0,60,0.00,,,0.00,weatherlink.com 1.10,2013-03-03 15:14:00,
2013-03-03 10:29:00,30.2,17.0,29.75,West,270,6.0,11.0,59,0.00,,,0.00,weatherlink.com 1.10,2013-03-03 15:29:00,
2013-03-03 10:44:00,30.6,18.0,29.75,WSW,252,6.0,9.0,59,0.00,,,0.00,weatherlink.com 1.10,2013-03-03 15:44:00,
2013-03-03 10:59:00,30.5,18.0,29.74,WNW,288,3.0,11.0,59,0.00,,,0.00,weatherlink.com 1.10,2013-03-03 15:59:00,
2013-03-03 11:14:00,30.3,18.0,29.75,SW,231,5.0,12.0,60,0.00,,,0.00,weatherlink.com 1.10,2013-03-03 16:14:00,
2013-03-03 11:29:00,30.8,18.0,29.74,SW,230,6.0,11.0,60,0.00,,,0.00,weatherlink.com 1.10,2013-03-03 16:29:00,
2013-03-03 11:44:00,31.4,19.0,29.74,NNW,344,7.0,15.0,61,0.00,,,0.00,weatherlink.com 1.10,2013-03-03 16:44:00,
2013-03-03 11:59:00,31.5,20.0,29.74,WSW,250,5.0,12.0,62,0.00,,,0.00,weatherlink.com 1.10,2013-03-03 16:59:00,
2013-03-03 12:14:00,31.7,19.0,29.73,NW,321,3.0,12.0,60,0.00,,,0.00,weatherlink.com 1.10,2013-03-03 17:14:00,
2013-03-03 12:29:00,31.4,19.0,29.73,WNW,296,8.0,15.0,60,0.00,,,0.00,weatherlink.com 1.10,2013-03-03 17:29:00,
2013-03-03 12:44:00,31.1,19.0,29.73,NW,318,4.0,14.0,60,0.00,,,0.00,weatherlink.com 1.10,2013-03-03 17:44:00,
2013-03-03 12:59:00,31.6,19.0,29.72,WNW,292,4.0,15.0,60,0.00,,,0.00,weatherlink.com 1.10,2013-03-03 17:59:00,
2013-03-03 13:14:00,32.1,20.0,29.72,WNW,286,5.0,11.0,61,0.00,,,0.00,weatherlink.com 1.10,2013-03-03 18:14:00,
2013-03-03 13:29:00,32.8,20.0,29.71,NW,319,13.0,13.0,59,0.00,,,0.00,weatherlink.com 1.10,2013-03-03 18:29:00,
2013-03-03 13:44:00,32.7,19.0,29.71,SW,226,5.0,14.0,58,0.00,,,0.00,weatherlink.com 1.10,2013-03-03 18:44:00,
2013-03-03 13:59:00,32.5,19.0,29.71,West,277,10.0,13.0,58,0.00,,,0.00,weatherlink.com 1.10,2013-03-03 18:59:00,
2013-03-03 14:14:00,33.3,19.0,29.71,North,5,8.0,13.0,57,0.00,,,0.00,weatherlink.com 1.10,2013-03-03 19:14:00,
2013-03-03 14:29:00,34.5,20.0,29.71,NW,312,4.0,10.0,56,0.00,,,0.00,weatherlink.com 1.10,2013-03-03 19:29:00,
2013-03-03 14:44:00,34.0,19.0,29.71,NNW,348,7.0,14.0,55,0.00,,,0.00,weatherlink.com 1.10,2013-03-03 19:44:00,
2013-03-03 14:59:00,33.6,19.0,29.71,North,5,8.0,13.0,55,0.00,,,0.00,weatherlink.com 1.10,2013-03-03 19:59:00,
2013-03-03 15:14:00,33.9,19.0,29.70,WNW,292,4.0,11.0,55,0.00,,,0.00,weatherlink.com 1.10,2013-03-03 20:14:00,
2013-03-03 15:29:00,34.7,19.0,29.71,WNW,286,5.0,13.0,54,0.00,,,0.00,weatherlink.com 1.10,2013-03-03 20:29:00,
2013-03-03 15:44:00,35.2,19.0,29.71,NW,306,7.0,15.0,52,0.00,,,0.00,weatherlink.com 1.10,2013-03-03 20:44:00,
2013-03-03 15:59:00,34.0,19.0,29.71,West,275,5.0,15.0,55,0.00,,,0.00,weatherlink.com 1.10,2013-03-03 20:59:00,
2013-03-03 16:14:00,33.5,19.0,29.71,WNW,299,4.0,14.0,56,0.00,,,0.00,weatherlink.com 1.10,2013-03-03 21:14:00,
2013-03-03 16:29:00,33.4,19.0,29.71,West,269,1.0,11.0,56,0.00,,,0.00,weatherlink.com 1.10,2013-03-03 21:29:00,
2013-03-03 16:44:00,33.4,19.0,29.72,WNW,296,4.0,10.0,56,0.00,,,0.00,weatherlink.com 1.10,2013-03-03 21:44:00,
2013-03-03 16:59:00,32.6,19.0,29.73,NNW,327,3.0,11.0,58,0.00,,,0.00,weatherlink.com 1.10,2013-03-03 21:59:00,
2013-03-03 17:14:00,32.3,19.0,29.73,WNW,298,2.0,12.0,59,0.00,,,0.00,weatherlink.com 1.10,2013-03-03 22:14:00,
2013-03-03 17:29:00,31.9,19.0,29.73,West,281,5.0,12.0,60,0.00,,,0.00,weatherlink.com 1.10,2013-03-03 22:29:00,
2013-03-03 17:44:00,31.5,19.0,29.73,NW,311,6.0,12.0,60,0.00,,,0.00,weatherlink.com 1.10,2013-03-03 22:44:00,
2013-03-03 17:59:00,31.2,19.0,29.74,NW,325,3.0,16.0,61,0.00,,,0.00,weatherlink.com 1.10,2013-03-03 22:59:00,
2013-03-03 18:14:00,30.9,19.0,29.74,West,281,8.0,14.0,62,0.00,,,0.00,weatherlink.com 1.10,2013-03-03 23:14:00,
2013-03-03 18:29:00,30.6,19.0,29.74,West,281,6.0,13.0,63,0.00,,,0.00,weatherlink.com 1.10,2013-03-03 23:29:00,
2013-03-03 18:44:00,30.5,20.0,29.75,WSW,250,3.0,12.0,64,0.00,,,0.00,weatherlink.com 1.10,2013-03-03 23:44:00,
2013-03-03 18:59:00,30.4,19.0,29.75,WSW,255,3.0,11.0,64,0.00,,,0.00,weatherlink.com 1.10,2013-03-03 23:59:00,
2013-03-03 19:14:00,30.3,19.0,29.76,NW,309,2.0,11.0,64,0.00,,,0.00,weatherlink.com 1.10,2013-03-04 00:14:00,
2013-03-03 19:29:00,30.2,19.0,29.76,WNW,288,9.0,16.0,63,0.00,,,0.00,weatherlink.com 1.10,2013-03-04 00:29:00,
2013-03-03 19:44:00,30.0,19.0,29.76,WNW,296,2.0,13.0,63,0.00,,,0.00,weatherlink.com 1.10,2013-03-04 00:44:00,
2013-03-03 19:59:00,29.7,19.0,29.77,WNW,302,3.0,18.0,64,0.00,,,0.00,weatherlink.com 1.10,2013-03-04 00:59:00,
2013-03-03 20:14:00,29.6,19.0,29.77,North,351,6.0,13.0,64,0.00,,,0.00,weatherlink.com 1.10,2013-03-04 01:14:00,
2013-03-03 20:30:00,29.4,19.0,29.77,WNW,286,3.0,8.0,65,0.00,,,0.00,weatherlink.com 1.10,2013-03-04 01:30:00,
2013-03-03 20:45:00,29.3,19.0,29.78,West,263,1.0,7.0,66,0.00,,,0.00,weatherlink.com 1.10,2013-03-04 01:45:00,
2013-03-03 21:00:00,29.2,19.0,29.79,NNW,347,2.0,11.0,65,0.00,,,0.00,weatherlink.com 1.10,2013-03-04 02:00:00,
2013-03-03 21:15:00,29.0,19.0,29.78,NNW,344,4.0,14.0,65,0.00,,,0.00,weatherlink.com 1.10,2013-03-04 02:15:00,
2013-03-03 21:30:00,28.6,18.0,29.78,WNW,286,6.0,14.0,65,0.00,,,0.00,weatherlink.com 1.10,2013-03-04 02:30:00,
2013-03-03 21:45:00,28.4,18.0,29.79,West,274,3.0,15.0,65,0.00,,,0.00,weatherlink.com 1.10,2013-03-04 02:45:00,
2013-03-03 22:00:00,28.3,17.0,29.79,NW,312,7.0,18.0,64,0.00,,,0.00,weatherlink.com 1.10,2013-03-04 03:00:00,
2013-03-03 22:15:00,28.1,16.0,29.79,WNW,294,4.0,14.0,62,0.00,,,0.00,weatherlink.com 1.10,2013-03-04 03:15:00,
2013-03-03 22:30:00,27.7,16.0,29.78,West,275,7.0,13.0,62,0.00,,,0.00,weatherlink.com 1.10,2013-03-04 03:30:00,
2013-03-03 22:45:00,27.4,16.0,29.79,WNW,288,4.0,13.0,63,0.00,,,0.00,weatherlink.com 1.10,2013-03-04 03:45:00,
2013-03-03 23:00:00,27.2,16.0,29.80,NNE,26,2.0,8.0,63,0.00,,,0.00,weatherlink.com 1.10,2013-03-04 04:00:00,
2013-03-03 23:15:00,27.0,16.0,29.79,WNW,303,2.0,10.0,64,0.00,,,0.00,weatherlink.com 1.10,2013-03-04 04:15:00,
2013-03-03 23:30:00,26.6,16.0,29.80,NNE,24,2.0,9.0,65,0.00,,,0.00,weatherlink.com 1.10,2013-03-04 04:30:00,
2013-03-03 23:45:00,26.4,16.0,29.80,North,5,4.0,7.0,66,0.00,,,0.00,weatherlink.com 1.10,2013-03-04 04:45:00,